We konden geen weer-waarchuwingen ophalen. Ga rechtstreeks naar de Meteoalarm site : www.meteoalarm.eu en controleer daar .


Onweer radar more information blitzortung!


Regen radar more information rain snow radar


Meteo Sauwerd

Weerstation Alkmaar Centrum

Weerstation Luyksgestel

Website Noardburgum

Weerstation Noordbergum



METAR rapporten vliegvelden

   
EHLW - Leeuwarden Rnlaf, Netherlands
Afstand tot: W 17 km
Gewijzigd: 23-02-2019 13:25
Bewolking  
Bewolking  
   Wind: Zuiden 13 km/h
Wind: Zuiden 13 km/h
Temperatuur: 9°C
Voelt als: 7°C
Dauwpunt: 5°C
Vochtigheid: 76%
Barometer: 1038 hPa
Bewolking: Bewolking
Zicht: meer dan 10 km
Bewolking: Bewolking 35000 ft
EHLW 231225Z AUTO 17007KT 120V190 9999 OVC350 09/05 Q1038 BLU
EHMA - Awg-1 Sea, Netherlands
Afstand tot: N 31 km
Gewijzigd: 23-02-2019 13:25
Helder  
Helder  
   Wind: OZO 18.5 km/h
Wind: OZO 18.5 km/h
Temperatuur: 7°C
Voelt als: 4°C
Dauwpunt: 5°C
Vochtigheid: 87%
Barometer: 1038 hPa
Bewolking: Helder
Zicht: meer dan 10 km
Bewolking: Helder
EHMA 231225Z AUTO 12010KT 9999 NCD 07/05 Q1038 W///H///
EHGG - Groningen/Eelde, Netherlands
Afstand tot: OZO 40 km
Gewijzigd: 23-02-2019 13:25
Gedeeltelijk bewolkt  
Gedeeltelijk bewolkt  
   Wind: ZO 9.3 km/h
Wind: ZO 9.3 km/h
Temperatuur: 9°C
Voelt als: 8°C
Dauwpunt: 4°C
Vochtigheid: 71%
Barometer: 1038 hPa
Bewolking: Gedeeltelijk bewolkt
Zicht: meer dan 10 km
Bewolking: Gedeeltelijk bewolkt
EHGG 231225Z AUTO 13005KT 070V180 9999 NSC 09/04 Q1038 NOSIG
EHVL - Vlieland Island, Netherlands
Afstand tot: W 72 km
Gewijzigd: 23-02-2019 13:25
Bewolking  
Bewolking  
   Wind: ZZO 24.1 km/h
Wind: ZZO 24.1 km/h
Temperatuur: 8°C
Voelt als: 4°C
Dauwpunt: 5°C
Vochtigheid: 82%
Barometer: 1038 hPa
Bewolking: Bewolking
Zicht: meer dan 10 km
Bewolking: Bewolking 33000 ft
EHVL 231225Z AUTO 15013KT 9999 OVC330 08/05 Q1038 BLU
EHMG - L9-Ff-1 Sea, Netherlands
Afstand tot: WNW 81 km
Gewijzigd: 23-02-2019 13:25
Helder  
Helder  
   Wind: Zuiden 27.8 km/h
Wind: Zuiden 27.8 km/h
Temperatuur: 6°C
Voelt als: 2°C
Dauwpunt: 5°C
Vochtigheid: 93%
Barometer: 1038 hPa
Bewolking: Helder
Zicht: meer dan 10 km
Bewolking: Helder
EHMG 231225Z AUTO 17015KT 9999 NCD 06/05 Q1038 W///H///
EHKD - De Kooy (navy), Netherlands
Afstand tot: WZW 89 km
Gewijzigd: 23-02-2019 13:25
Licht bewolkt  
Licht bewolkt  
   Wind: ZO 13 km/h
Wind: ZO 13 km/h
Temperatuur: 11°C
Dauwpunt: 7°C
Vochtigheid: 77%
Barometer: 1037 hPa
Bewolking: Licht bewolkt
Zicht: meer dan 10 km
Bewolking: Licht bewolkt 35000 ft
EHKD 231225Z AUTO 14007KT 100V180 9999 FEW350 11/07 Q1037 BLU

Script ontwikkeld door  Saratoga-weather.org Aangepast voor de template door  Weerstation Leuven

U vindt ons ook hier:

Het Weer Aktueel

UK Metoffice

European Weather Network

Weather Underground

AWEKAS

Citizen Weather Observer Program (CWOP)

HAMweather, WeatherForYou, PWS Weather

Apparatuur in gebruik:

Weerstation
Davis Vantage pro 2

Weerprogramma
Meteobridge

Weercomputer
TP-Link TL-WR703N

Webleverancier
Versio

Davis Vantage pro 2

Meteobridge

TP-Link TL-WR703N

Versio